createdAt,value
2023-05-15T00:01:48.288Z,7.28
2023-05-15T00:04:14.743Z,4.22
2023-05-15T00:06:41.138Z,9.10
2023-05-15T00:09:08.595Z,7.45
2023-05-15T00:11:34.945Z,7.47
2023-05-15T00:14:01.332Z,5.75
2023-05-15T00:16:27.674Z,9.13
2023-05-15T00:18:54.090Z,5.93
2023-05-15T00:21:20.630Z,8.30
2023-05-15T00:23:47.545Z,6.15
2023-05-15T00:26:15.639Z,5.15
2023-05-15T00:28:41.983Z,5.03
2023-05-15T00:31:08.845Z,6.93
2023-05-15T00:33:35.336Z,7.15
2023-05-15T00:36:02.900Z,7.93
2023-05-15T00:38:30.840Z,6.53
2023-05-15T00:40:57.210Z,8.30
2023-05-15T00:43:25.709Z,5.85
2023-05-15T00:45:53.698Z,6.47
2023-05-15T00:48:22.528Z,12.57
2023-05-15T00:50:51.393Z,6.93
2023-05-15T00:53:18.570Z,7.53
2023-05-15T00:55:49.828Z,7.43
2023-05-15T00:58:18.571Z,6.07
2023-05-15T01:00:46.421Z,6.15
2023-05-15T01:03:13.211Z,6.03
2023-05-15T01:05:39.628Z,7.03
2023-05-15T01:08:18.888Z,6.18
2023-05-15T01:10:47.342Z,6.97
2023-05-15T01:13:15.457Z,12.30
2023-05-15T01:15:42.047Z,5.43
2023-05-15T01:18:08.752Z,6.35
2023-05-15T01:21:06.335Z,6.35
2023-05-15T01:23:46.101Z,8.38
2023-05-15T01:26:44.117Z,7.00
2023-05-15T01:29:22.003Z,9.48
2023-05-15T01:31:57.555Z,6.28
2023-05-15T01:34:32.196Z,10.63
2023-05-15T01:37:02.703Z,6.25
2023-05-15T01:39:32.639Z,9.43
2023-05-15T01:42:10.514Z,7.22
2023-05-15T01:44:41.142Z,6.75
2023-05-15T01:47:13.640Z,5.63
2023-05-15T01:49:42.906Z,8.68
2023-05-15T01:52:15.827Z,4.80
2023-05-15T01:54:42.765Z,4.22
2023-05-15T01:57:10.309Z,5.50
2023-05-15T01:59:37.394Z,10.07
2023-05-15T02:02:05.338Z,6.35
2023-05-15T02:04:33.783Z,6.10
2023-05-15T02:07:03.926Z,6.45
2023-05-15T02:09:31.749Z,8.88
2023-05-15T02:12:00.803Z,5.57
2023-05-15T02:14:29.199Z,6.10
2023-05-15T02:16:55.713Z,4.65
2023-05-15T02:19:22.074Z,6.03
2023-05-15T02:21:48.619Z,9.23
2023-05-15T02:24:14.975Z,8.98
2023-05-15T02:26:51.406Z,4.78
2023-05-15T02:29:48.601Z,5.72
2023-05-15T02:32:29.057Z,5.63
2023-05-15T02:35:12.558Z,6.68
2023-05-15T02:37:44.923Z,10.40
2023-05-15T02:40:13.341Z,5.72
2023-05-15T02:42:41.632Z,11.13
2023-05-15T02:45:10.338Z,9.27
2023-05-15T02:47:37.244Z,6.35
2023-05-15T02:50:04.618Z,6.53
2023-05-15T02:52:34.673Z,12.18
2023-05-15T02:55:01.398Z,4.50
2023-05-15T02:57:27.737Z,7.35
2023-05-15T02:59:55.389Z,7.55
2023-05-15T03:02:21.756Z,3.78
2023-05-15T03:04:48.185Z,6.38
2023-05-15T03:07:14.590Z,7.88
2023-05-15T03:09:41.227Z,6.55
2023-05-15T03:12:08.573Z,6.20
2023-05-15T03:14:34.875Z,6.20
2023-05-15T03:17:01.427Z,4.75
2023-05-15T03:19:27.760Z,8.02
2023-05-15T03:21:54.209Z,6.55
2023-05-15T03:24:21.277Z,4.15
2023-05-15T03:26:47.585Z,7.95
2023-05-15T03:29:13.952Z,10.23
2023-05-15T03:31:40.389Z,5.13
2023-05-15T03:34:06.800Z,8.40
2023-05-15T03:36:33.193Z,13.02
2023-05-15T03:38:59.553Z,14.00
2023-05-15T03:41:27.753Z,9.50
2023-05-15T03:43:54.075Z,5.97
2023-05-15T03:46:20.570Z,9.25
2023-05-15T03:48:46.955Z,6.25
2023-05-15T03:51:13.280Z,5.50
2023-05-15T03:53:39.948Z,9.90
2023-05-15T03:56:06.491Z,5.25
2023-05-15T03:58:32.945Z,5.75
2023-05-15T04:00:59.370Z,9.25
2023-05-15T04:03:25.784Z,4.82
2023-05-15T04:05:52.325Z,6.30
2023-05-15T04:08:18.677Z,4.57
2023-05-15T04:10:45.042Z,4.65
2023-05-15T04:13:11.421Z,7.85
2023-05-15T04:15:37.859Z,7.38
2023-05-15T04:18:04.460Z,4.88
2023-05-15T04:20:30.969Z,5.05
2023-05-15T04:22:57.312Z,6.30
2023-05-15T04:25:24.389Z,6.72
2023-05-15T04:27:51.066Z,6.95
2023-05-15T04:30:17.552Z,10.43
2023-05-15T04:32:44.258Z,6.70
2023-05-15T04:35:14.934Z,15.18
2023-05-15T04:37:42.776Z,6.47
2023-05-15T04:40:09.841Z,8.80
2023-05-15T04:42:39.060Z,7.43
2023-05-15T04:45:07.227Z,5.30
2023-05-15T04:47:34.004Z,8.23
2023-05-15T04:50:00.439Z,8.50
2023-05-15T04:52:26.868Z,6.80
2023-05-15T04:54:55.456Z,7.95
2023-05-15T04:57:22.173Z,6.25
2023-05-15T04:59:48.644Z,6.57
2023-05-15T05:02:14.969Z,9.10
2023-05-15T05:04:42.838Z,18.48
2023-05-15T05:07:09.149Z,21.17
2023-05-15T05:09:35.456Z,14.02
2023-05-15T05:12:02.214Z,9.75
2023-05-15T05:14:28.714Z,9.77
2023-05-15T05:16:55.220Z,10.88
2023-05-15T05:19:21.509Z,8.38
2023-05-15T05:21:47.834Z,10.13
2023-05-15T05:24:14.209Z,10.05
2023-05-15T05:26:44.181Z,11.52
2023-05-15T05:29:10.719Z,17.10
2023-05-15T05:31:37.125Z,22.73
2023-05-15T05:34:03.671Z,18.77
2023-05-15T05:36:30.001Z,20.27
2023-05-15T05:38:56.369Z,20.55
2023-05-15T05:41:23.126Z,42.17
2023-05-15T05:43:49.473Z,50.85
2023-05-15T05:46:15.792Z,61.00
2023-05-15T05:48:42.482Z,51.53
2023-05-15T05:51:08.788Z,53.90
2023-05-15T05:53:35.793Z,66.55
2023-05-15T05:56:03.291Z,64.60
2023-05-15T05:58:29.683Z,69.47
2023-05-15T06:00:56.294Z,62.58
2023-05-15T06:03:22.810Z,64.38
2023-05-15T06:05:49.362Z,67.78
2023-05-15T06:08:16.843Z,68.28
2023-05-15T06:10:43.197Z,83.07
2023-05-15T06:13:09.524Z,73.25
2023-05-15T06:15:35.879Z,74.88
2023-05-15T06:18:02.354Z,79.85
2023-05-15T06:20:29.025Z,82.05
2023-05-15T06:22:55.405Z,76.25
2023-05-15T06:25:21.949Z,80.82
2023-05-15T06:27:48.277Z,85.68
2023-05-15T06:30:14.924Z,83.72
2023-05-15T06:32:41.881Z,71.40
2023-05-15T06:35:09.913Z,85.25
2023-05-15T06:37:36.982Z,74.07
2023-05-15T06:40:04.971Z,74.57
2023-05-15T06:42:31.836Z,81.57
2023-05-15T06:44:58.252Z,84.50
2023-05-15T06:47:24.762Z,84.93
2023-05-15T06:49:51.207Z,82.55
2023-05-15T06:52:17.576Z,87.15
2023-05-15T06:54:44.032Z,87.22
2023-05-15T06:57:10.374Z,84.47
2023-05-15T06:59:36.714Z,83.60
2023-05-15T07:02:03.612Z,82.28
2023-05-15T07:04:31.108Z,82.13
2023-05-15T07:06:57.874Z,79.05
2023-05-15T07:09:24.947Z,74.85
2023-05-15T07:11:51.298Z,79.50
2023-05-15T07:14:17.917Z,88.88
2023-05-15T07:16:45.044Z,77.40
2023-05-15T07:19:11.467Z,77.75
2023-05-15T07:21:39.274Z,72.50
2023-05-15T07:24:05.845Z,77.50
2023-05-15T07:26:38.667Z,73.68
2023-05-15T07:29:13.222Z,75.88
2023-05-15T07:31:40.427Z,73.75
2023-05-15T07:34:07.010Z,70.55
2023-05-15T07:36:33.372Z,79.15
2023-05-15T07:38:59.732Z,78.00
2023-05-15T07:41:26.045Z,76.80
2023-05-15T07:43:52.431Z,77.55
2023-05-15T07:46:18.851Z,77.03
2023-05-15T07:48:45.240Z,75.60
2023-05-15T07:51:11.576Z,64.68
2023-05-15T07:53:37.904Z,71.55
2023-05-15T07:56:04.728Z,62.47
2023-05-15T07:58:31.056Z,65.40
2023-05-15T08:00:57.432Z,63.47
2023-05-15T08:03:23.890Z,67.90
2023-05-15T08:05:50.392Z,75.72
2023-05-15T08:08:16.731Z,68.80
2023-05-15T08:10:43.080Z,61.00
2023-05-15T08:13:09.388Z,58.67
2023-05-15T08:15:35.875Z,68.18
2023-05-15T08:18:02.343Z,65.28
2023-05-15T08:20:28.744Z,63.70
2023-05-15T08:22:55.045Z,67.15
2023-05-15T08:25:21.401Z,64.40
2023-05-15T08:27:47.741Z,60.72
2023-05-15T08:30:14.287Z,55.47
2023-05-15T08:32:42.761Z,69.75
2023-05-15T08:35:09.139Z,74.35
2023-05-15T08:37:36.074Z,70.65
2023-05-15T08:40:05.088Z,63.75
2023-05-15T08:42:37.604Z,66.40
2023-05-15T08:45:05.526Z,64.07
2023-05-15T08:47:35.618Z,68.55
2023-05-15T08:50:08.241Z,64.20
2023-05-15T08:52:35.166Z,66.30
2023-05-15T08:55:03.734Z,70.53
2023-05-15T08:57:31.840Z,66.70
2023-05-15T08:59:59.022Z,67.30
2023-05-15T09:02:26.089Z,70.32
2023-05-15T09:04:52.568Z,71.25
2023-05-15T09:07:20.493Z,72.65
2023-05-15T09:09:47.562Z,74.28
2023-05-15T09:12:16.254Z,73.40
2023-05-15T09:14:43.456Z,75.03
2023-05-15T09:17:11.559Z,67.07
2023-05-15T09:19:42.339Z,60.90
2023-05-15T09:22:17.568Z,58.92
2023-05-15T09:24:45.474Z,68.50
2023-05-15T09:27:11.873Z,67.75
2023-05-15T09:29:39.836Z,66.60
2023-05-15T09:32:08.342Z,57.10
2023-05-15T09:34:37.599Z,54.17
2023-05-15T09:37:06.241Z,58.10
2023-05-15T09:39:33.950Z,67.88
2023-05-15T09:42:08.066Z,55.38
2023-05-15T09:44:34.815Z,56.17
2023-05-15T09:47:01.857Z,60.72
2023-05-15T09:49:30.582Z,56.97
2023-05-15T09:51:59.353Z,57.25
2023-05-15T09:54:27.341Z,54.97
2023-05-15T09:56:54.007Z,51.45
2023-05-15T09:59:23.016Z,52.35
2023-05-15T10:01:51.563Z,56.80
2023-05-15T10:04:18.554Z,47.72
2023-05-15T10:06:48.738Z,53.05
2023-05-15T10:09:15.868Z,55.43
2023-05-15T10:11:44.016Z,53.20
2023-05-15T10:14:13.101Z,55.33
2023-05-15T10:16:40.805Z,46.30
2023-05-15T10:19:09.731Z,47.80
2023-05-15T10:21:39.453Z,53.10
2023-05-15T10:24:07.292Z,48.40
2023-05-15T10:26:40.713Z,37.95
2023-05-15T10:29:10.169Z,40.28
2023-05-15T10:31:36.756Z,46.47
2023-05-15T10:34:04.572Z,46.88
2023-05-15T10:36:35.042Z,46.50
2023-05-15T10:39:04.405Z,41.92
2023-05-15T10:41:32.979Z,38.20
2023-05-15T10:44:00.505Z,42.28
2023-05-15T10:46:28.837Z,43.45
2023-05-15T10:48:55.249Z,42.78
2023-05-15T10:51:30.075Z,45.72
2023-05-15T10:53:57.474Z,38.40
2023-05-15T10:56:30.406Z,42.83
2023-05-15T10:58:56.895Z,41.50
2023-05-15T11:01:27.436Z,48.08
2023-05-15T11:04:17.125Z,46.47
2023-05-15T11:06:45.626Z,48.58
2023-05-15T11:09:27.885Z,48.95
2023-05-15T11:11:57.160Z,53.30
2023-05-15T11:14:28.257Z,50.85
2023-05-15T11:16:54.628Z,56.70
2023-05-15T11:19:55.519Z,58.20
2023-05-15T11:22:30.396Z,52.22
2023-05-15T11:24:59.801Z,56.97
2023-05-15T11:27:27.797Z,49.55
2023-05-15T11:30:13.514Z,49.53
2023-05-15T11:33:01.948Z,47.97
2023-05-15T11:35:32.438Z,49.75
2023-05-15T11:38:20.013Z,46.13
2023-05-15T11:40:55.741Z,45.60
2023-05-15T11:43:26.893Z,43.85
2023-05-15T11:45:57.772Z,49.15
2023-05-15T11:50:55.286Z,49.20
2023-05-15T11:53:22.993Z,51.47
2023-05-15T11:55:52.712Z,45.30
2023-05-15T11:58:22.990Z,40.97
2023-05-15T12:00:51.355Z,37.60
2023-05-15T12:03:24.704Z,37.55
2023-05-15T12:05:58.915Z,37.05
2023-05-15T12:08:30.628Z,34.05
2023-05-15T12:10:58.890Z,34.78
2023-05-15T12:13:25.358Z,38.22
2023-05-15T12:15:51.955Z,33.63
2023-05-15T12:18:18.327Z,37.58
2023-05-15T12:20:48.190Z,35.80
2023-05-15T12:23:17.074Z,37.08
2023-05-15T12:25:46.074Z,36.30
2023-05-15T12:28:12.785Z,38.58
2023-05-15T12:30:39.858Z,34.55
2023-05-15T12:33:07.715Z,29.85
2023-05-15T12:35:35.871Z,33.53
2023-05-15T12:38:06.400Z,30.17
2023-05-15T12:40:37.024Z,31.00
2023-05-15T12:43:07.450Z,31.98
2023-05-15T12:45:36.182Z,24.27
2023-05-15T12:48:03.335Z,30.70
2023-05-15T12:50:32.596Z,28.73
2023-05-15T12:53:02.403Z,24.55
2023-05-15T12:55:36.328Z,38.72
2023-05-15T12:58:07.605Z,26.00
2023-05-15T13:00:40.356Z,29.15
2023-05-15T13:03:09.644Z,23.92
2023-05-15T13:05:37.452Z,30.25
2023-05-15T13:08:05.708Z,26.58
2023-05-15T13:10:34.187Z,25.83
2023-05-15T13:13:00.930Z,29.10
2023-05-15T13:15:36.904Z,24.80
2023-05-15T13:18:08.722Z,24.63
2023-05-15T13:20:42.272Z,27.02
2023-05-15T13:23:11.299Z,27.25
2023-05-15T13:25:37.817Z,25.17
2023-05-15T13:28:06.366Z,24.63
2023-05-15T13:30:34.287Z,26.52
2023-05-15T13:33:01.278Z,21.90
2023-05-15T13:35:27.992Z,21.33
2023-05-15T13:37:54.460Z,21.48
2023-05-15T13:40:21.171Z,16.85
2023-05-15T13:42:47.610Z,18.45
2023-05-15T13:45:16.180Z,20.05
2023-05-15T13:47:43.816Z,24.20
2023-05-15T13:50:12.265Z,22.23
2023-05-15T13:52:39.914Z,23.23
2023-05-15T13:55:09.450Z,22.55
2023-05-15T13:57:37.256Z,19.23
2023-05-15T14:00:10.518Z,19.75
2023-05-15T14:02:36.963Z,16.20
2023-05-15T14:05:04.579Z,20.70
2023-05-15T14:07:31.698Z,17.08
2023-05-15T14:09:58.603Z,17.75
2023-05-15T14:12:24.981Z,17.63
2023-05-15T14:14:51.396Z,17.85
2023-05-15T14:17:18.383Z,17.77
2023-05-15T14:19:44.785Z,21.25
2023-05-15T14:22:11.215Z,21.45
2023-05-15T14:24:37.662Z,17.75
2023-05-15T14:27:04.513Z,19.02
2023-05-15T14:29:30.978Z,22.30
2023-05-15T14:31:57.396Z,21.95
2023-05-15T14:34:23.935Z,20.05
2023-05-15T14:36:50.732Z,15.68
2023-05-15T14:39:17.829Z,16.25
2023-05-15T14:41:44.555Z,15.55
2023-05-15T14:44:11.141Z,19.10
2023-05-15T14:46:38.008Z,29.20
2023-05-15T14:49:05.274Z,13.75
2023-05-15T14:51:32.284Z,16.52
2023-05-15T14:53:58.898Z,14.77
2023-05-15T14:56:25.850Z,17.05
2023-05-15T14:58:53.531Z,16.55
2023-05-15T15:01:20.366Z,18.25
2023-05-15T15:03:46.887Z,20.20
2023-05-15T15:06:13.276Z,21.10
2023-05-15T15:08:39.675Z,17.83
2023-05-15T15:11:06.800Z,19.55
2023-05-15T15:13:33.189Z,22.15
2023-05-15T15:15:59.557Z,16.55
2023-05-15T15:18:26.213Z,20.42
2023-05-15T15:20:52.870Z,16.48
2023-05-15T15:23:19.181Z,17.05
2023-05-15T15:28:35.089Z,19.85
2023-05-15T15:31:01.698Z,20.80
2023-05-15T15:33:28.663Z,17.17
2023-05-15T15:35:55.349Z,12.90
2023-05-15T15:38:21.710Z,15.63
2023-05-15T15:40:48.081Z,14.45
2023-05-15T15:43:14.403Z,12.88
2023-05-15T15:45:41.009Z,15.13
2023-05-15T15:48:07.416Z,9.77
2023-05-15T15:50:33.802Z,9.23
2023-05-15T15:53:00.130Z,14.65
2023-05-15T15:55:26.449Z,11.35
2023-05-15T15:57:52.820Z,13.35
2023-05-15T16:00:19.337Z,10.40
2023-05-15T16:02:46.327Z,12.13
2023-05-15T16:05:12.769Z,12.38
2023-05-15T16:07:39.098Z,9.38
2023-05-15T16:10:12.620Z,11.00
2023-05-15T16:12:44.840Z,10.15
2023-05-15T16:17:41.455Z,10.52
2023-05-15T16:20:08.060Z,9.75
2023-05-15T16:22:34.420Z,10.23
2023-05-15T16:25:00.898Z,9.32
2023-05-15T16:27:27.338Z,10.25
2023-05-15T16:29:53.674Z,12.35
2023-05-15T16:32:21.157Z,9.88
2023-05-15T16:34:47.914Z,9.77
2023-05-15T16:37:14.448Z,8.88
2023-05-15T16:39:40.907Z,9.07
2023-05-15T16:42:09.298Z,13.48
2023-05-15T16:44:35.870Z,10.40
2023-05-15T16:47:02.493Z,15.40
2023-05-15T16:49:28.822Z,11.73
2023-05-15T16:51:55.126Z,11.60
2023-05-15T16:54:21.423Z,10.05
2023-05-15T16:56:47.770Z,11.05
2023-05-15T16:59:14.100Z,15.40
2023-05-15T17:01:40.572Z,11.02
2023-05-15T17:04:07.141Z,10.93
2023-05-15T17:06:33.487Z,11.90
2023-05-15T17:08:59.885Z,12.23
2023-05-15T17:11:26.256Z,11.93
2023-05-15T17:13:52.591Z,13.85
2023-05-15T17:16:18.954Z,12.27
2023-05-15T17:18:45.331Z,11.15
2023-05-15T17:21:11.745Z,10.50
2023-05-15T17:23:38.112Z,13.32
2023-05-15T17:26:04.453Z,13.38
2023-05-15T17:28:30.806Z,13.15
2023-05-15T17:30:57.163Z,14.73
2023-05-15T17:33:23.521Z,10.52
2023-05-15T17:35:50.155Z,15.20
2023-05-15T17:38:16.605Z,13.25
2023-05-15T17:40:42.960Z,14.10
2023-05-15T17:43:10.126Z,10.30
2023-05-15T17:45:36.790Z,9.35
2023-05-15T17:48:04.815Z,11.27
2023-05-15T17:50:31.170Z,9.68
2023-05-15T17:52:57.510Z,9.48
2023-05-15T17:55:23.982Z,10.25
2023-05-15T17:57:50.500Z,14.30
2023-05-15T18:00:17.085Z,14.98
2023-05-15T18:02:43.488Z,13.50
2023-05-15T18:05:10.082Z,14.63
2023-05-15T18:07:36.396Z,23.40
2023-05-15T18:10:02.888Z,22.25
2023-05-15T18:12:29.261Z,19.92
2023-05-15T18:14:55.690Z,24.13
2023-05-15T18:17:22.133Z,26.65
2023-05-15T18:19:48.456Z,22.73
2023-05-15T18:22:15.561Z,32.50
2023-05-15T18:24:41.904Z,24.92
2023-05-15T18:27:08.295Z,28.02
2023-05-15T18:29:34.662Z,27.83
2023-05-15T18:32:01.130Z,25.20
2023-05-15T18:34:27.514Z,23.52
2023-05-15T18:36:53.934Z,20.15
2023-05-15T18:39:20.515Z,20.98
2023-05-15T18:41:46.903Z,29.23
2023-05-15T18:44:13.199Z,22.30
2023-05-15T18:46:39.661Z,25.05
2023-05-15T18:49:06.138Z,27.45
2023-05-15T18:51:32.599Z,20.55
2023-05-15T18:53:58.926Z,24.48
2023-05-15T18:56:25.487Z,26.90
2023-05-15T18:58:52.096Z,31.02
2023-05-15T19:01:18.522Z,30.25
2023-05-15T19:03:45.151Z,27.67
2023-05-15T19:06:13.240Z,28.30
2023-05-15T19:08:39.606Z,24.02
2023-05-15T19:11:05.978Z,27.48
2023-05-15T19:13:33.056Z,24.15
2023-05-15T19:15:59.458Z,21.70
2023-05-15T19:18:25.782Z,20.33
2023-05-15T19:20:52.168Z,23.27
2023-05-15T19:23:20.433Z,25.83
2023-05-15T19:25:46.789Z,26.02
2023-05-15T19:28:14.674Z,24.20
2023-05-15T19:30:41.279Z,19.75
2023-05-15T19:33:07.650Z,21.27
2023-05-15T19:35:35.947Z,21.30
2023-05-15T19:38:03.743Z,18.55
2023-05-15T19:40:30.137Z,19.42
2023-05-15T19:42:56.500Z,21.77
2023-05-15T19:45:22.809Z,24.23
2023-05-15T19:47:49.214Z,22.83
2023-05-15T19:50:15.684Z,21.73
2023-05-15T19:52:43.982Z,21.60
2023-05-15T19:55:11.647Z,22.40
2023-05-15T19:57:40.021Z,25.98
2023-05-15T20:00:07.884Z,26.10
2023-05-15T20:02:34.439Z,29.85
2023-05-15T20:05:00.939Z,28.02
2023-05-15T20:07:27.286Z,26.67
2023-05-15T20:09:55.332Z,27.55
2023-05-15T20:12:21.869Z,28.65
2023-05-15T20:14:49.628Z,28.23
2023-05-15T20:17:17.697Z,32.00
2023-05-15T20:19:44.286Z,27.88
2023-05-15T20:22:10.746Z,31.70
2023-05-15T20:24:37.670Z,30.23
2023-05-15T20:27:04.514Z,33.30
2023-05-15T20:29:30.888Z,29.52
2023-05-15T20:31:57.466Z,27.60
2023-05-15T20:34:24.006Z,30.25
2023-05-15T20:36:54.319Z,33.75
2023-05-15T20:39:21.258Z,33.35
2023-05-15T20:41:47.691Z,35.45
2023-05-15T20:44:14.075Z,37.28
2023-05-15T20:46:41.271Z,33.50
2023-05-15T20:49:07.637Z,35.50
2023-05-15T20:51:33.995Z,33.92
2023-05-15T20:54:00.432Z,33.47
2023-05-15T20:56:26.932Z,35.45
2023-05-15T20:58:53.257Z,35.95
2023-05-15T21:01:19.575Z,34.65
2023-05-15T21:03:46.276Z,37.17
2023-05-15T21:06:14.034Z,38.15
2023-05-15T21:08:40.425Z,38.40
2023-05-15T21:11:06.823Z,39.92
2023-05-15T21:13:33.152Z,37.05
2023-05-15T21:15:59.481Z,40.72
2023-05-15T21:18:25.890Z,42.63
2023-05-15T21:20:52.758Z,41.92
2023-05-15T21:23:20.915Z,41.08
2023-05-15T21:25:47.605Z,42.30
2023-05-15T21:28:14.157Z,42.70
2023-05-15T21:30:40.651Z,42.80
2023-05-15T21:33:07.348Z,45.65
2023-05-15T21:51:40.143Z,60.25
2023-05-15T21:54:06.718Z,54.53
2023-05-15T22:02:31.763Z,58.42
2023-05-15T22:04:58.505Z,56.03
2023-05-15T22:07:28.015Z,61.17
2023-05-15T22:09:54.748Z,59.13
2023-05-15T22:12:21.598Z,65.20
2023-05-15T22:14:58.393Z,59.70
2023-05-15T22:17:30.412Z,61.33
2023-05-15T22:20:07.325Z,59.08
2023-05-15T22:22:35.597Z,58.40
2023-05-15T22:25:02.644Z,58.60
2023-05-15T22:27:29.589Z,55.83
2023-05-15T22:30:03.460Z,64.88
2023-05-15T22:32:30.437Z,62.75
2023-05-15T22:34:57.260Z,60.83
2023-05-15T22:37:24.030Z,56.88
2023-05-15T22:39:50.921Z,58.28
2023-05-15T22:42:19.107Z,56.88
2023-05-15T22:44:46.880Z,51.88
2023-05-15T22:47:13.852Z,55.25
2023-05-15T22:49:43.247Z,53.47
2023-05-15T22:52:12.255Z,55.08
2023-05-15T22:54:40.882Z,54.67
2023-05-15T22:57:08.717Z,56.17
2023-05-15T22:59:35.908Z,57.15
2023-05-15T23:02:05.771Z,54.95
2023-05-15T23:04:32.703Z,56.75
2023-05-15T23:06:59.528Z,49.55
2023-05-15T23:09:26.395Z,57.20
2023-05-15T23:11:56.379Z,47.78
2023-05-15T23:14:24.252Z,48.00
2023-05-15T23:19:38.455Z,50.30
2023-05-15T23:22:05.571Z,52.10
2023-05-15T23:24:32.432Z,46.65
2023-05-15T23:26:59.193Z,46.25
2023-05-15T23:29:26.008Z,45.55
2023-05-15T23:31:52.366Z,43.75
2023-05-15T23:34:18.778Z,44.97
2023-05-15T23:36:45.303Z,42.88
2023-05-15T23:39:11.646Z,40.10
2023-05-15T23:41:37.983Z,37.63
2023-05-15T23:44:04.600Z,42.53
2023-05-15T23:46:31.053Z,38.95
2023-05-15T23:48:57.388Z,39.78
2023-05-15T23:51:23.765Z,38.50
2023-05-15T23:53:50.394Z,40.67
2023-05-15T23:56:16.693Z,45.53
2023-05-15T23:58:43.060Z,43.75
